Time;durP1;ratioP1;P1;durP2;ratioP2;P2;SDS_P1;SDS_P2;PMS_P1;PMS_P2;Temp;Humidity;BMP_temperature;BMP_pressure;BME280_temperature;BME280_humidity;BME280_pressure;Samples;Min_cycle;Max_cycle;Signal;HPM_P1;HPM_P2
2022/08/11 00:00:08;;;;;;;;;;;;;;;16.92;100.00;102434.78;10416326;28;20394;-73
2022/08/11 00:05:10;;;;;;;;;;;;;;;16.85;100.00;102441.66;10454855;28;19928;-72
2022/08/11 00:10:11;;;;;;;;;;;;;;;16.84;100.00;102439.97;10456995;28;19923;-73
2022/08/11 00:15:12;;;;;;;;;;;;;;;16.84;100.00;102456.66;10456800;28;19927;-72
2022/08/11 00:20:14;;;;;;;;;;;;;;;16.80;100.00;102445.16;10457172;28;19950;-73
2022/08/11 00:25:15;;;;;;;;;;;;;;;16.78;100.00;102449.31;10457500;28;19969;-73
2022/08/11 00:30:16;;;;;;;;;;;;;;;16.77;100.00;102453.19;10458427;28;19995;-73
2022/08/11 00:35:16;;;;;;;;;;;;;;;16.73;100.00;102450.91;10455073;28;19975;-72
2022/08/11 00:40:37;;;;;;;;;;;;;;;15.94;100.00;102321.41;10438493;28;19943;-73
2022/08/11 00:45:41;;;;;;;;;;;;;;;16.66;100.00;102439.16;10455912;28;20309;-72
2022/08/11 00:51:02;;;;;;;;;;;;;;;16.63;100.00;102438.81;10456550;28;20436;-73
2022/08/11 00:56:02;;;;;;;;;;;;;;;16.57;100.00;102435.13;10445939;28;19927;-71
2022/08/11 01:01:09;;;;;;;;;;;;;;;16.55;100.00;102440.09;10455105;28;20089;-73
2022/08/11 01:06:24;;;;;;;;;;;;;;;16.48;100.00;102436.66;10459829;28;19999;-73
2022/08/11 01:11:24;;;;;;;;;;;;;;;16.47;100.00;102448.88;10455876;28;19994;-74
2022/08/11 01:16:44;;;;;;;;;;;;;;;16.41;100.00;102433.22;10455402;28;19956;-73
2022/08/11 01:22:03;;;;;;;;;;;;;;;16.32;100.00;102439.22;10470975;28;20196;-72
2022/08/11 01:27:06;;;;;;;;;;;;;;;16.29;100.00;102438.91;10471237;28;19917;-72
2022/08/11 01:32:15;;;;;;;;;;;;;;;16.27;100.00;102433.59;10454855;28;20395;-73
2022/08/11 01:37:16;;;;;;;;;;;;;;;16.25;100.00;102426.63;10454854;28;20297;-73
2022/08/11 01:47:54;;;;;;;;;;;;;;;16.10;100.00;102432.75;10456356;28;19921;-73
2022/08/11 01:52:54;;;;;;;;;;;;;;;16.04;100.00;102431.84;10454600;28;19925;-72
2022/08/11 01:58:14;;;;;;;;;;;;;;;15.99;100.00;102428.97;10454544;28;19947;-72
2022/08/11 02:03:15;;;;;;;;;;;;;;;15.98;100.00;102432.00;10470180;28;19943;-73
2022/08/11 02:08:21;;;;;;;;;;;;;;;15.92;100.00;102429.16;10454137;28;19921;-72
2022/08/11 02:13:41;;;;;;;;;;;;;;;15.91;100.00;102432.16;10455877;28;19916;-72
2022/08/11 02:24:02;;;;;;;;;;;;;;;15.88;100.00;102433.53;10453344;28;19963;-73
2022/08/11 02:29:03;;;;;;;;;;;;;;;15.84;100.00;102421.22;10453872;28;19924;-72
2022/08/11 02:34:29;;;;;;;;;;;;;;;15.81;100.00;102421.72;10459487;28;19928;-73
2022/08/11 02:39:53;;;;;;;;;;;;;;;15.79;100.00;102423.06;10446541;28;20147;-73
2022/08/11 02:45:11;;;;;;;;;;;;;;;15.75;100.00;102417.22;10460142;28;19920;-73
2022/08/11 02:50:22;;;;;;;;;;;;;;;15.69;100.00;102421.78;10459693;28;19920;-72
2022/08/11 02:55:29;;;;;;;;;;;;;;;15.64;100.00;102410.56;10460498;28;19916;-71
2022/08/11 03:00:29;;;;;;;;;;;;;;;15.58;100.00;102410.75;10461387;28;19955;-73
2022/08/11 03:05:29;;;;;;;;;;;;;;;15.53;100.00;102411.50;10460054;28;19921;-73
2022/08/11 03:10:41;;;;;;;;;;;;;;;15.50;100.00;102409.22;10461804;28;19942;-73
2022/08/11 03:21:23;;;;;;;;;;;;;;;15.43;100.00;102412.16;10460424;28;20012;-73
2022/08/11 03:26:29;;;;;;;;;;;;;;;15.39;100.00;102397.09;10459369;28;19931;-73
2022/08/11 03:31:31;;;;;;;;;;;;;;;15.37;100.00;102407.59;10460637;28;19920;-73
2022/08/11 03:36:45;;;;;;;;;;;;;;;15.30;100.00;102395.81;10458111;28;19940;-73
2022/08/11 03:41:53;;;;;;;;;;;;;;;15.28;100.00;102400.78;10458732;28;19982;-73
2022/08/11 03:47:12;;;;;;;;;;;;;;;15.23;100.00;102409.00;10441867;28;19921;-73
2022/08/11 03:52:13;;;;;;;;;;;;;;;15.19;100.00;102407.81;10459675;28;20006;-73
2022/08/11 03:57:26;;;;;;;;;;;;;;;15.16;100.00;102411.94;10457794;28;19970;-73
2022/08/11 04:02:29;;;;;;;;;;;;;;;15.16;100.00;102413.88;10458245;28;20376;-73
2022/08/11 04:07:48;;;;;;;;;;;;;;;15.11;100.00;102417.34;10440698;28;20286;-73
2022/08/11 04:12:57;;;;;;;;;;;;;;;15.10;100.00;102421.25;10457514;28;20003;-72
2022/08/11 04:18:19;;;;;;;;;;;;;;;15.09;100.00;102419.56;10455971;28;20503;-73
2022/08/11 04:23:38;;;;;;;;;;;;;;;15.10;100.00;102419.31;10457027;28;19995;-73
2022/08/11 04:28:43;;;;;;;;;;;;;;;15.15;100.00;102415.78;10458152;28;19920;-73
2022/08/11 04:33:46;;;;;;;;;;;;;;;15.19;100.00;102422.50;10456964;28;19992;-73
2022/08/11 04:39:05;;;;;;;;;;;;;;;15.23;100.00;102420.94;10454901;28;19920;-73
2022/08/11 04:44:12;;;;;;;;;;;;;;;15.26;100.00;102422.38;10453779;28;19927;-73
2022/08/11 05:05:42;;;;;;;;;;;;;;;15.53;100.00;102411.50;10413033;28;19955;-73
2022/08/11 05:11:01;;;;;;;;;;;;;;;15.63;100.00;102413.63;10451623;28;20416;-73
2022/08/11 05:37:24;;;;;;;;;;;;;;;15.99;100.00;102415.09;10454987;28;20293;-72
2022/08/11 05:58:38;;;;;;;;;;;;;;;16.89;100.00;102406.66;10453078;28;19963;-73
2022/08/11 06:08:57;;;;;;;;;;;;;;;17.84;100.00;102404.31;10456858;28;19925;-74
2022/08/11 06:13:57;;;;;;;;;;;;;;;18.17;100.00;102396.75;10461799;28;20340;-73
2022/08/11 06:18:57;;;;;;;;;;;;;;;18.50;100.00;102389.09;10446009;28;19921;-73
2022/08/11 06:23:58;;;;;;;;;;;;;;;18.77;100.00;102394.56;10445069;28;19917;-73
2022/08/11 06:29:00;;;;;;;;;;;;;;;19.01;100.00;102389.34;10462188;28;20046;-73
2022/08/11 06:34:33;;;;;;;;;;;;;;;19.31;100.00;102398.94;10460461;28;19971;-73
2022/08/11 06:39:39;;;;;;;;;;;;;;;19.52;100.00;102385.81;10400767;28;19917;-71
2022/08/11 06:44:40;;;;;;;;;;;;;;;19.77;100.00;102385.00;10461759;28;20364;-74
2022/08/11 07:00:40;;;;;;;;;;;;;;;20.69;100.00;102389.59;10459653;28;19921;-74
2022/08/11 07:05:44;;;;;;;;;;;;;;;21.04;100.00;102385.75;10448324;28;20297;-73
2022/08/11 07:16:04;;;;;;;;;;;;;;;21.62;100.00;102379.53;10439515;28;19921;-72
2022/08/11 07:31:49;;;;;;;;;;;;;;;22.23;100.00;102378.13;10439172;28;19928;-73
2022/08/11 07:36:53;;;;;;;;;;;;;;;22.42;100.00;102369.78;10435682;28;19955;-73
2022/08/11 07:41:55;;;;;;;;;;;;;;;22.68;100.00;102372.28;10439813;28;19980;-73
2022/08/11 07:52:31;;;;;;;;;;;;;;;23.33;100.00;102371.66;10438576;28;20379;-73
2022/08/11 08:18:47;;;;;;;;;;;;;;;24.70;96.83;102353.44;10423973;28;19921;-73
2022/08/11 08:23:47;;;;;;;;;;;;;;;24.95;92.59;102339.88;10447163;28;20115;-73
2022/08/11 08:28:47;;;;;;;;;;;;;;;25.16;89.90;102331.81;10457301;28;19991;-72
2022/08/11 08:33:47;;;;;;;;;;;;;;;25.46;86.45;102330.22;10436886;28;20428;-73
2022/08/11 08:38:49;;;;;;;;;;;;;;;25.76;80.38;102319.31;10421618;28;20024;-73
2022/08/11 08:43:50;;;;;;;;;;;;;;;25.93;80.36;102322.25;10439625;28;20004;-73
2022/08/11 08:48:50;;;;;;;;;;;;;;;26.07;76.87;102310.06;10439784;28;19917;-73
2022/08/11 08:53:51;;;;;;;;;;;;;;;26.35;74.86;102311.47;10438225;28;19928;-73
2022/08/11 08:58:51;;;;;;;;;;;;;;;26.54;72.34;102297.06;10458304;28;19924;-73
2022/08/11 09:03:52;;;;;;;;;;;;;;;26.86;70.73;102296.97;10456827;28;19921;-74
2022/08/11 09:08:53;;;;;;;;;;;;;;;27.05;69.15;102299.47;10436488;28;19925;-71
2022/08/11 09:13:53;;;;;;;;;;;;;;;27.25;68.89;102296.00;10426479;28;19917;-72
2022/08/11 09:18:53;;;;;;;;;;;;;;;27.52;65.85;102282.66;10426627;28;19920;-72
2022/08/11 09:29:13;;;;;;;;;;;;;;;27.87;61.08;102266.41;10442382;28;19984;-72
2022/08/11 09:34:13;;;;;;;;;;;;;;;28.06;61.45;102276.50;10441829;28;19948;-71
2022/08/11 09:44:46;;;;;;;;;;;;;;;28.55;58.52;102263.56;10447982;28;19923;-71
2022/08/11 09:49:47;;;;;;;;;;;;;;;28.84;58.39;102269.53;10451390;28;19921;-71
2022/08/11 09:54:48;;;;;;;;;;;;;;;29.05;56.97;102264.66;10451717;28;19939;-72
2022/08/11 09:59:48;;;;;;;;;;;;;;;29.28;56.19;102256.63;10461654;28;20019;-71
2022/08/11 10:04:49;;;;;;;;;;;;;;;29.40;53.72;102258.66;10442610;28;19929;-71
2022/08/11 10:09:56;;;;;;;;;;;;;;;29.45;50.26;102232.91;10415060;28;19921;-72
2022/08/11 10:20:19;;;;;;;;;;;;;;;29.74;48.62;102219.72;10453091;28;20311;-71
2022/08/11 10:35:58;;;;;;;;;;;;;;;30.06;48.70;102208.63;10457457;28;19921;-71
2022/08/11 11:02:14;;;;;;;;;;;;;;;31.03;45.12;102184.00;10415437;28;19921;-73
2022/08/11 11:07:22;;;;;;;;;;;;;;;31.25;43.81;102179.69;10449589;28;19927;-72
2022/08/11 11:17:56;;;;;;;;;;;;;;;31.48;42.83;102162.88;10433483;28;19928;-71
2022/08/11 11:23:05;;;;;;;;;;;;;;;31.42;43.42;102169.16;10415992;28;20420;-73
2022/08/11 11:28:27;;;;;;;;;;;;;;;31.50;43.16;102163.31;10413506;28;19970;-72
2022/08/11 11:33:33;;;;;;;;;;;;;;;31.77;43.64;102167.25;10446724;28;20022;-72
2022/08/11 11:38:33;;;;;;;;;;;;;;;31.99;42.20;102162.09;10444576;28;19929;-73
2022/08/11 11:43:34;;;;;;;;;;;;;;;32.32;42.23;102166.50;10449080;28;19916;-73
2022/08/11 11:48:34;;;;;;;;;;;;;;;32.45;43.47;102173.69;10448522;28;20110;-73
2022/08/11 11:53:34;;;;;;;;;;;;;;;32.63;41.15;102159.84;10444938;28;20212;-73
2022/08/11 12:03:54;;;;;;;;;;;;;;;33.70;39.87;102148.81;10446416;28;20444;-72
2022/08/11 12:08:55;;;;;;;;;;;;;;;34.42;38.21;102126.97;10427371;28;19959;-73
2022/08/11 12:13:59;;;;;;;;;;;;;;;35.10;37.20;102120.00;10445221;28;19917;-72
2022/08/11 12:18:59;;;;;;;;;;;;;;;35.26;36.46;102110.34;10445651;28;20003;-72
2022/08/11 12:29:19;;;;;;;;;;;;;;;36.42;35.26;102124.22;10445329;28;20383;-72
2022/08/11 12:34:19;;;;;;;;;;;;;;;36.78;32.68;102087.06;10411451;28;19990;-72
2022/08/11 12:45:26;;;;;;;;;;;;;;;36.96;33.98;102100.22;10444277;28;19920;-73
2022/08/11 13:05:58;;;;;;;;;;;;;;;37.19;29.73;102063.75;10445254;28;19920;-73
2022/08/11 13:16:19;;;;;;;;;;;;;;;37.35;32.03;102079.34;10400455;28;19921;-73
2022/08/11 13:21:20;;;;;;;;;;;;;;;37.52;31.72;102082.59;10422752;28;19966;-72
2022/08/11 13:26:23;;;;;;;;;;;;;;;37.32;30.74;102062.09;10438009;28;20373;-73
2022/08/11 13:31:23;;;;;;;;;;;;;;;37.49;30.65;102061.25;10454467;28;19921;-73
2022/08/11 13:36:27;;;;;;;;;;;;;;;37.20;28.17;101951.38;10454855;28;19916;-72
2022/08/11 13:41:40;;;;;;;;;;;;;;;37.88;27.66;102030.81;10422725;28;19939;-72
2022/08/11 13:46:41;;;;;;;;;;;;;;;38.04;28.56;102044.72;10438548;28;19921;-74
2022/08/11 13:51:42;;;;;;;;;;;;;;;37.92;27.46;102032.44;10453819;28;20291;-73
2022/08/11 13:56:43;;;;;;;;;;;;;;;37.55;27.37;102028.00;10412001;28;19927;-71
2022/08/11 14:01:46;;;;;;;;;;;;;;;37.76;27.87;102021.38;10396151;28;19921;-75
2022/08/11 14:06:49;;;;;;;;;;;;;;;37.65;27.75;102025.56;10399161;28;19952;-73
2022/08/11 14:17:09;;;;;;;;;;;;;;;37.42;29.54;102034.59;10434369;28;19928;-73
2022/08/11 14:22:10;;;;;;;;;;;;;;;37.34;30.43;102026.00;10436204;28;19927;-73
2022/08/11 14:27:11;;;;;;;;;;;;;;;37.16;31.52;102043.25;10422326;28;19927;-73
2022/08/11 14:32:13;;;;;;;;;;;;;;;37.25;32.18;102036.25;10442808;28;19951;-73
2022/08/11 14:37:15;;;;;;;;;;;;;;;37.06;31.97;102020.25;10429104;28;19921;-72
2022/08/11 14:47:36;;;;;;;;;;;;;;;37.16;31.04;102013.72;10461347;28;20414;-73
2022/08/11 14:52:37;;;;;;;;;;;;;;;36.92;30.79;102010.44;10443019;28;19970;-72
2022/08/11 14:57:39;;;;;;;;;;;;;;;37.04;30.75;102009.19;10460253;28;19962;-73
2022/08/11 15:07:58;;;;;;;;;;;;;;;36.79;31.27;101999.75;10461124;28;19917;-72
2022/08/11 15:12:59;;;;;;;;;;;;;;;37.06;31.12;102006.72;10425474;28;20373;-72
2022/08/11 15:18:00;;;;;;;;;;;;;;;37.11;30.24;101994.84;10438180;28;19921;-72
2022/08/11 15:39:16;;;;;;;;;;;;;;;38.37;30.06;101977.19;10418236;28;19948;-72
2022/08/11 15:49:36;;;;;;;;;;;;;;;37.65;30.06;101947.97;10457537;28;20081;-71
2022/08/11 15:54:42;;;;;;;;;;;;;;;37.29;30.04;101953.81;10442027;28;19916;-71
2022/08/11 16:05:03;;;;;;;;;;;;;;;35.98;31.79;101962.69;10458281;28;19920;-72
2022/08/11 16:10:10;;;;;;;;;;;;;;;34.89;33.39;101959.56;10458755;28;20042;-71
2022/08/11 16:20:29;;;;;;;;;;;;;;;32.86;35.98;101968.81;10455854;28;19920;-75
2022/08/11 16:25:32;;;;;;;;;;;;;;;31.85;37.45;101971.75;10456267;28;20010;-72
2022/08/11 16:30:36;;;;;;;;;;;;;;;31.03;37.83;101964.16;10455612;28;19924;-70
2022/08/11 16:40:56;;;;;;;;;;;;;;;30.10;42.00;101976.69;10454311;28;19969;-70
2022/08/11 16:51:19;;;;;;;;;;;;;;;29.54;43.62;101981.13;10455709;28;20223;-69
2022/08/11 16:56:20;;;;;;;;;;;;;;;29.26;45.10;101985.88;10455735;28;19917;-70
2022/08/11 17:01:21;;;;;;;;;;;;;;;29.04;44.32;101976.63;10456786;28;19920;-69
2022/08/11 17:17:06;;;;;;;;;;;;;;;28.45;46.64;101994.03;10441058;28;20505;-70
2022/08/11 17:27:25;;;;;;;;;;;;;;;28.13;49.96;102000.16;10441953;28;20418;-70
2022/08/11 17:37:44;;;;;;;;;;;;;;;27.78;50.69;101996.75;10445186;28;19916;-70
2022/08/11 18:04:03;;;;;;;;;;;;;;;26.97;54.66;102010.03;10455453;28;19927;-71
